createdAt,value
2022-09-30T00:01:33.094Z,4.47
2022-09-30T00:03:59.926Z,4.03
2022-09-30T00:06:26.619Z,2.72
2022-09-30T00:08:53.304Z,4.38
2022-09-30T00:11:21.194Z,2.88
2022-09-30T00:13:48.573Z,2.75
2022-09-30T00:16:15.535Z,2.58
2022-09-30T00:18:42.545Z,4.18
2022-09-30T00:21:09.300Z,5.07
2022-09-30T00:23:37.783Z,3.10
2022-09-30T00:26:05.508Z,2.85
2022-09-30T00:28:31.932Z,3.05
2022-09-30T00:30:59.501Z,3.67
2022-09-30T00:33:25.761Z,2.50
2022-09-30T00:35:52.028Z,3.80
2022-09-30T00:38:18.247Z,6.95
2022-09-30T00:40:44.470Z,4.65
2022-09-30T00:43:17.379Z,3.47
2022-09-30T00:45:50.990Z,2.97
2022-09-30T00:48:18.979Z,7.10
2022-09-30T00:50:47.163Z,3.92
2022-09-30T00:53:27.639Z,3.28
2022-09-30T00:55:57.498Z,5.07
2022-09-30T00:58:45.309Z,3.00
2022-09-30T01:01:11.589Z,4.32
2022-09-30T01:03:42.842Z,3.22
2022-09-30T01:06:09.076Z,3.30
2022-09-30T01:08:37.031Z,3.38
2022-09-30T01:11:07.823Z,3.97
2022-09-30T01:13:35.458Z,4.28
2022-09-30T01:16:20.294Z,7.05
2022-09-30T01:18:58.808Z,5.03
2022-09-30T01:21:28.188Z,2.95
2022-09-30T01:24:01.631Z,2.92
2022-09-30T01:26:44.296Z,2.80
2022-09-30T01:29:13.761Z,2.78
2022-09-30T01:31:43.836Z,5.00
2022-09-30T01:34:12.986Z,3.43
2022-09-30T01:36:42.786Z,4.20
2022-09-30T01:39:22.132Z,3.15
2022-09-30T01:41:55.807Z,4.43
2022-09-30T01:44:27.801Z,3.00
2022-09-30T01:46:56.574Z,3.08
2022-09-30T01:49:25.613Z,2.95
2022-09-30T01:51:59.222Z,3.70
2022-09-30T01:54:30.947Z,4.13
2022-09-30T01:57:18.018Z,4.97
2022-09-30T01:59:44.368Z,3.33
2022-09-30T02:02:15.195Z,3.85
2022-09-30T02:04:42.981Z,5.25
2022-09-30T02:07:12.539Z,3.30
2022-09-30T02:09:40.914Z,2.97
2022-09-30T02:12:08.548Z,7.57
2022-09-30T02:14:41.467Z,3.10
2022-09-30T02:17:10.859Z,4.40
2022-09-30T02:19:42.427Z,3.92
2022-09-30T02:22:18.043Z,3.20
2022-09-30T02:24:45.925Z,3.45
2022-09-30T02:27:19.288Z,3.97
2022-09-30T02:29:52.809Z,5.60
2022-09-30T02:32:27.534Z,3.13
2022-09-30T02:34:57.411Z,3.92
2022-09-30T02:37:26.527Z,4.25
2022-09-30T02:39:58.791Z,4.47
2022-09-30T02:42:28.390Z,4.53
2022-09-30T02:44:58.324Z,4.78
2022-09-30T02:47:36.440Z,3.72
2022-09-30T02:50:02.704Z,3.85
2022-09-30T02:52:36.040Z,5.15
2022-09-30T02:55:02.259Z,2.78
2022-09-30T02:57:37.632Z,3.40
2022-09-30T03:00:07.881Z,3.38
2022-09-30T03:02:38.141Z,2.55
2022-09-30T03:05:04.695Z,2.35
2022-09-30T03:07:31.216Z,4.03
2022-09-30T03:09:58.965Z,2.70
2022-09-30T03:12:40.822Z,2.50
2022-09-30T03:15:13.293Z,2.72
2022-09-30T03:17:42.531Z,2.60
2022-09-30T03:20:31.837Z,3.25
2022-09-30T03:23:11.263Z,4.18
2022-09-30T03:25:56.866Z,3.30
2022-09-30T03:28:27.146Z,3.40
2022-09-30T03:31:18.688Z,11.02
2022-09-30T03:33:47.983Z,2.60
2022-09-30T03:36:38.078Z,4.35
2022-09-30T03:39:04.303Z,2.60
2022-09-30T03:41:33.600Z,3.95
2022-09-30T03:44:16.189Z,4.60
2022-09-30T03:46:48.031Z,3.50
2022-09-30T03:49:16.973Z,3.90
2022-09-30T03:51:43.232Z,5.38
2022-09-30T03:54:11.187Z,5.05
2022-09-30T03:56:41.984Z,7.22
2022-09-30T03:59:13.227Z,7.68
2022-09-30T04:01:39.753Z,3.20
2022-09-30T04:04:06.056Z,4.03
2022-09-30T04:06:32.292Z,6.38
2022-09-30T04:08:58.646Z,7.47
2022-09-30T04:11:24.951Z,3.38
2022-09-30T04:13:51.204Z,4.88
2022-09-30T04:16:17.594Z,4.55
2022-09-30T04:18:44.362Z,4.68
2022-09-30T04:21:12.217Z,3.28
2022-09-30T04:23:39.262Z,4.55
2022-09-30T04:26:10.990Z,3.47
2022-09-30T04:28:37.267Z,3.30
2022-09-30T04:31:04.352Z,4.93
2022-09-30T04:33:30.636Z,2.72
2022-09-30T04:35:57.532Z,4.50
2022-09-30T04:38:24.582Z,3.63
2022-09-30T04:40:51.593Z,3.78
2022-09-30T04:43:18.985Z,2.78
2022-09-30T04:45:45.786Z,3.83
2022-09-30T04:48:12.891Z,3.47
2022-09-30T04:50:39.413Z,10.52
2022-09-30T04:53:06.398Z,3.35
2022-09-30T04:55:32.665Z,2.90
2022-09-30T04:57:58.900Z,6.82
2022-09-30T05:00:25.764Z,4.22
2022-09-30T05:02:52.389Z,3.53
2022-09-30T05:05:18.715Z,6.22
2022-09-30T05:07:44.964Z,3.70
2022-09-30T05:10:11.768Z,5.53
2022-09-30T05:12:38.932Z,3.45
2022-09-30T05:15:05.515Z,5.45
2022-09-30T05:17:31.983Z,5.28
2022-09-30T05:19:58.534Z,3.85
2022-09-30T05:22:25.183Z,5.10
2022-09-30T05:24:51.805Z,4.60
2022-09-30T05:27:18.536Z,3.30
2022-09-30T05:29:44.764Z,6.78
2022-09-30T05:32:11.347Z,5.38
2022-09-30T05:34:38.939Z,4.18
2022-09-30T05:37:05.585Z,4.07
2022-09-30T05:39:32.000Z,7.32
2022-09-30T05:41:58.669Z,9.27
2022-09-30T05:44:25.031Z,7.63
2022-09-30T05:46:51.350Z,4.93
2022-09-30T05:49:17.802Z,5.82
2022-09-30T05:51:44.257Z,5.88
2022-09-30T05:54:11.061Z,4.85
2022-09-30T05:56:38.345Z,6.70
2022-09-30T05:59:04.956Z,7.03
2022-09-30T06:01:31.248Z,5.97
2022-09-30T06:03:57.532Z,7.28
2022-09-30T06:06:23.762Z,14.43
2022-09-30T06:08:49.992Z,17.70
2022-09-30T06:11:20.347Z,14.52
2022-09-30T06:13:49.813Z,8.15
2022-09-30T06:16:18.286Z,5.32
2022-09-30T06:18:44.812Z,6.75
2022-09-30T06:21:12.580Z,9.40
2022-09-30T06:23:38.847Z,5.68
2022-09-30T06:26:06.148Z,7.10
2022-09-30T06:28:35.086Z,10.02
2022-09-30T06:31:02.156Z,7.60
2022-09-30T06:33:28.739Z,9.10
2022-09-30T06:35:55.132Z,12.50
2022-09-30T06:38:23.058Z,11.55
2022-09-30T06:40:49.990Z,12.20
2022-09-30T06:43:16.747Z,9.60
2022-09-30T06:45:45.012Z,8.32
2022-09-30T06:48:11.331Z,13.93
2022-09-30T06:50:39.822Z,14.07
2022-09-30T06:53:08.269Z,15.88
2022-09-30T06:55:38.715Z,17.92
2022-09-30T06:58:08.243Z,15.48
2022-09-30T07:00:34.526Z,15.88
2022-09-30T07:03:00.798Z,17.50
2022-09-30T07:05:27.118Z,18.38
2022-09-30T07:07:53.969Z,18.83
2022-09-30T07:10:20.388Z,22.73
2022-09-30T07:12:50.948Z,23.98
2022-09-30T07:15:17.755Z,35.05
2022-09-30T07:17:44.007Z,29.42
2022-09-30T07:20:10.321Z,36.90
2022-09-30T07:22:36.551Z,36.55
2022-09-30T07:25:04.085Z,37.22
2022-09-30T07:27:32.219Z,41.47
2022-09-30T07:30:24.011Z,43.22
2022-09-30T07:32:46.302Z,44.08
2022-09-30T07:35:12.574Z,44.05
2022-09-30T07:37:38.822Z,43.58
2022-09-30T07:40:06.553Z,40.92
2022-09-30T07:42:32.863Z,46.28
2022-09-30T07:44:59.088Z,41.22
2022-09-30T07:47:25.364Z,42.40
2022-09-30T07:49:52.309Z,48.28
2022-09-30T07:52:18.558Z,45.25
2022-09-30T07:54:50.257Z,45.78
2022-09-30T07:57:16.915Z,43.25
2022-09-30T07:59:43.200Z,46.63
2022-09-30T08:02:16.833Z,42.58
2022-09-30T08:04:44.506Z,42.03
2022-09-30T08:07:11.426Z,39.40
2022-09-30T08:09:37.697Z,36.65
2022-09-30T08:12:05.284Z,34.53
2022-09-30T08:14:31.591Z,34.72
2022-09-30T08:17:00.143Z,32.00
2022-09-30T08:19:27.015Z,26.30
2022-09-30T08:21:54.068Z,31.42
2022-09-30T08:24:20.916Z,32.63
2022-09-30T08:26:47.544Z,26.65
2022-09-30T08:29:20.459Z,26.02
2022-09-30T08:31:47.229Z,26.00
2022-09-30T08:34:13.716Z,23.10
2022-09-30T08:36:40.004Z,25.27
2022-09-30T08:39:06.314Z,23.15
2022-09-30T08:41:41.559Z,21.17
2022-09-30T08:44:43.299Z,19.35
2022-09-30T08:47:15.471Z,16.80
2022-09-30T08:49:47.547Z,18.90
2022-09-30T08:52:30.234Z,20.73
2022-09-30T08:55:05.323Z,17.50
2022-09-30T08:57:35.995Z,22.65
2022-09-30T09:00:08.507Z,19.60
2022-09-30T09:02:38.798Z,23.58
2022-09-30T09:05:06.265Z,17.17
2022-09-30T09:07:51.707Z,19.15
2022-09-30T09:10:18.112Z,21.50
2022-09-30T09:12:44.389Z,20.48
2022-09-30T09:15:22.048Z,19.83
2022-09-30T09:18:24.351Z,20.15
2022-09-30T09:20:54.752Z,23.08
2022-09-30T09:23:21.922Z,20.40
2022-09-30T09:25:52.823Z,19.25
2022-09-30T09:28:28.134Z,16.33
2022-09-30T09:30:57.562Z,17.23
2022-09-30T09:33:27.655Z,16.98
2022-09-30T09:36:12.321Z,16.48
2022-09-30T09:39:01.845Z,15.95
2022-09-30T09:41:36.298Z,15.88
2022-09-30T09:44:05.526Z,14.90
2022-09-30T09:46:43.651Z,17.83
2022-09-30T09:49:28.970Z,16.83
2022-09-30T09:52:24.124Z,15.48
2022-09-30T09:54:56.870Z,18.17
2022-09-30T09:57:32.116Z,14.45
2022-09-30T10:00:22.374Z,13.40
2022-09-30T10:03:03.736Z,12.38
2022-09-30T10:05:32.187Z,12.65
2022-09-30T10:08:18.847Z,12.93
2022-09-30T10:10:45.188Z,9.50
2022-09-30T10:13:34.488Z,9.90
2022-09-30T10:16:01.688Z,11.40
2022-09-30T10:18:30.677Z,10.98
2022-09-30T10:21:06.065Z,10.30
2022-09-30T10:23:39.731Z,9.00
2022-09-30T10:26:15.055Z,11.00
2022-09-30T10:29:00.887Z,10.88
2022-09-30T10:31:27.244Z,9.20
2022-09-30T10:34:19.956Z,11.25
2022-09-30T10:36:46.662Z,10.05
2022-09-30T10:39:15.960Z,8.85
2022-09-30T10:41:42.326Z,9.35
2022-09-30T10:44:15.675Z,8.50
2022-09-30T10:46:44.621Z,8.88
2022-09-30T10:49:28.211Z,10.13
2022-09-30T10:51:56.031Z,10.23
2022-09-30T10:54:36.200Z,8.18
2022-09-30T10:57:05.615Z,7.00
2022-09-30T10:59:34.587Z,7.53
2022-09-30T11:02:06.160Z,5.88
2022-09-30T11:04:37.601Z,8.93
2022-09-30T11:07:12.385Z,4.20
2022-09-30T11:09:49.521Z,5.60
2022-09-30T11:12:34.219Z,6.57
2022-09-30T11:15:03.535Z,3.50
2022-09-30T11:17:29.722Z,3.25
2022-09-30T11:20:01.112Z,5.20
2022-09-30T11:22:33.708Z,4.70
2022-09-30T11:25:00.323Z,4.70
2022-09-30T11:27:42.597Z,2.50
2022-09-30T11:30:13.778Z,2.60
2022-09-30T11:32:58.436Z,3.13
2022-09-30T11:35:32.039Z,4.80
2022-09-30T11:38:01.185Z,5.03
2022-09-30T11:40:47.908Z,2.10
2022-09-30T11:43:18.610Z,2.85
2022-09-30T11:48:32.547Z,2.53
2022-09-30T11:51:05.248Z,2.85
2022-09-30T11:53:34.270Z,1.80
2022-09-30T11:56:20.824Z,1.95
2022-09-30T11:58:51.586Z,1.98
2022-09-30T12:01:18.183Z,1.70
2022-09-30T12:03:48.647Z,2.97
2022-09-30T12:06:15.429Z,2.08
2022-09-30T12:08:49.568Z,3.47
2022-09-30T12:11:20.617Z,3.35
2022-09-30T12:13:56.151Z,1.95
2022-09-30T12:16:24.509Z,2.28
2022-09-30T12:18:56.234Z,2.92
2022-09-30T12:21:25.299Z,2.33
2022-09-30T12:24:13.748Z,3.55
2022-09-30T12:26:40.819Z,2.47
2022-09-30T12:29:45.947Z,2.60
2022-09-30T12:32:33.434Z,2.83
2022-09-30T12:35:19.603Z,2.40
2022-09-30T12:37:59.404Z,1.98
2022-09-30T12:40:35.022Z,2.57
2022-09-30T12:43:01.965Z,3.10
2022-09-30T12:45:47.208Z,2.55
2022-09-30T12:48:17.591Z,2.58
2022-09-30T12:53:15.500Z,2.63
2022-09-30T12:55:42.239Z,3.60
2022-09-30T12:58:20.360Z,4.97
2022-09-30T13:01:00.247Z,2.92
2022-09-30T13:03:27.071Z,3.23
2022-09-30T13:05:56.195Z,2.75
2022-09-30T13:08:25.623Z,2.92
2022-09-30T13:10:59.220Z,5.05
2022-09-30T13:13:25.488Z,3.55
2022-09-30T13:15:52.467Z,3.35
2022-09-30T13:18:21.911Z,6.50
2022-09-30T13:20:50.951Z,5.90
2022-09-30T13:23:35.938Z,4.68
2022-09-30T13:26:03.004Z,5.05
2022-09-30T13:28:32.002Z,5.95
2022-09-30T13:31:19.089Z,4.95
2022-09-30T13:33:47.505Z,4.90
2022-09-30T13:36:18.475Z,5.93
2022-09-30T13:38:44.792Z,6.20
2022-09-30T13:41:20.987Z,5.93
2022-09-30T13:44:03.100Z,5.55
2022-09-30T13:46:39.786Z,7.38
2022-09-30T13:49:12.175Z,6.30
2022-09-30T13:51:40.161Z,6.68
2022-09-30T13:54:08.552Z,5.13
2022-09-30T13:56:36.655Z,6.03
2022-09-30T13:59:09.820Z,4.75
2022-09-30T14:01:36.188Z,6.07
2022-09-30T14:04:23.240Z,4.50
2022-09-30T14:07:10.339Z,4.13
2022-09-30T14:09:42.636Z,3.63
2022-09-30T14:12:12.258Z,5.10
2022-09-30T14:14:50.476Z,5.40
2022-09-30T14:17:23.759Z,6.72
2022-09-30T14:20:09.169Z,4.57
2022-09-30T14:22:36.443Z,4.82
2022-09-30T14:25:03.437Z,2.92
2022-09-30T14:27:35.922Z,3.72
2022-09-30T14:30:14.431Z,4.50
2022-09-30T14:33:01.475Z,3.22
2022-09-30T14:35:32.056Z,2.80
2022-09-30T14:40:32.162Z,2.72
2022-09-30T14:43:02.904Z,3.33
2022-09-30T14:45:30.986Z,6.80
2022-09-30T14:47:59.724Z,4.60
2022-09-30T14:50:28.476Z,6.28
2022-09-30T14:52:58.719Z,5.32
2022-09-30T14:55:33.407Z,2.80
2022-09-30T14:58:18.680Z,4.68
2022-09-30T15:00:47.115Z,3.72
2022-09-30T15:03:13.856Z,6.82
2022-09-30T15:05:40.911Z,3.20
2022-09-30T15:08:11.650Z,3.40
2022-09-30T15:10:38.027Z,5.72
2022-09-30T15:13:07.651Z,5.57
2022-09-30T15:15:37.318Z,10.85
2022-09-30T15:18:22.550Z,3.28
2022-09-30T15:20:48.945Z,3.30
2022-09-30T15:23:25.020Z,6.57
2022-09-30T15:25:52.048Z,4.40
2022-09-30T15:28:18.526Z,3.47
2022-09-30T15:30:44.793Z,4.03
2022-09-30T15:33:16.817Z,6.95
2022-09-30T15:35:43.283Z,8.52
2022-09-30T15:38:29.753Z,6.18
2022-09-30T15:40:59.757Z,5.10
2022-09-30T15:43:33.136Z,3.60
2022-09-30T15:46:15.356Z,3.97
2022-09-30T15:48:44.678Z,4.20
2022-09-30T15:51:24.773Z,6.43
2022-09-30T15:53:51.443Z,5.72
2022-09-30T15:56:28.579Z,5.30
2022-09-30T15:58:58.820Z,6.80
2022-09-30T16:01:35.765Z,4.55
2022-09-30T16:04:05.450Z,3.78
2022-09-30T16:06:35.000Z,4.18
2022-09-30T16:09:04.202Z,3.50
2022-09-30T16:11:32.071Z,4.07
2022-09-30T16:13:59.050Z,11.05
2022-09-30T16:16:26.667Z,5.38
2022-09-30T16:18:53.749Z,4.00
2022-09-30T16:21:31.123Z,4.10
2022-09-30T16:23:57.526Z,6.65
2022-09-30T16:26:28.646Z,4.68
2022-09-30T16:29:05.835Z,3.40
2022-09-30T16:31:34.594Z,6.43
2022-09-30T16:34:00.980Z,4.18
2022-09-30T16:36:27.198Z,3.40
2022-09-30T16:38:53.488Z,4.90
2022-09-30T16:41:19.795Z,7.82
2022-09-30T16:43:46.063Z,6.30
2022-09-30T16:46:13.468Z,5.07
2022-09-30T16:48:39.824Z,5.20
2022-09-30T16:51:07.716Z,5.15
2022-09-30T16:53:34.342Z,5.05
2022-09-30T16:56:00.808Z,7.10
2022-09-30T16:58:27.122Z,8.07
2022-09-30T17:00:53.601Z,8.35
2022-09-30T17:03:21.508Z,5.00
2022-09-30T17:05:52.504Z,10.65
2022-09-30T17:08:19.795Z,5.65
2022-09-30T17:10:47.846Z,6.75
2022-09-30T17:13:17.413Z,5.65
2022-09-30T17:15:47.844Z,5.00
2022-09-30T17:18:14.064Z,8.52
2022-09-30T17:20:42.908Z,6.63
2022-09-30T17:23:09.148Z,5.47
2022-09-30T17:25:40.982Z,5.00
2022-09-30T17:28:07.878Z,7.45
2022-09-30T17:30:34.130Z,5.20
2022-09-30T17:33:00.391Z,6.93
2022-09-30T17:35:26.606Z,6.30
2022-09-30T17:37:52.862Z,7.18
2022-09-30T17:40:38.026Z,8.15
2022-09-30T17:43:07.180Z,3.83
2022-09-30T17:45:34.095Z,5.65
2022-09-30T17:48:00.483Z,5.68
2022-09-30T17:50:27.720Z,9.32
2022-09-30T17:52:54.184Z,8.70
2022-09-30T17:55:20.523Z,9.80
2022-09-30T17:57:46.728Z,10.95
2022-09-30T18:00:13.143Z,11.13
2022-09-30T18:02:40.712Z,6.43
2022-09-30T18:05:08.428Z,4.35
2022-09-30T18:07:34.646Z,6.55
2022-09-30T18:10:00.885Z,5.88
2022-09-30T18:12:27.120Z,7.28
2022-09-30T18:14:54.509Z,5.80
2022-09-30T18:17:20.802Z,4.93
2022-09-30T18:19:48.058Z,4.63
2022-09-30T18:22:14.266Z,8.00
2022-09-30T18:24:59.076Z,4.55
2022-09-30T18:27:25.991Z,4.97
2022-09-30T18:29:52.964Z,7.18
2022-09-30T18:32:19.231Z,8.13
2022-09-30T18:34:45.453Z,6.20
2022-09-30T18:37:11.679Z,6.15
2022-09-30T18:39:38.125Z,7.75
2022-09-30T18:42:04.928Z,5.95
2022-09-30T18:44:32.483Z,6.18
2022-09-30T18:46:59.315Z,10.40
2022-09-30T18:49:25.584Z,7.13
2022-09-30T18:51:51.833Z,7.78
2022-09-30T18:54:18.070Z,4.45
2022-09-30T18:56:44.471Z,4.70
2022-09-30T18:59:17.113Z,4.82
2022-09-30T19:01:46.426Z,5.53
2022-09-30T19:04:12.786Z,7.45
2022-09-30T19:06:39.458Z,4.43
2022-09-30T19:09:06.484Z,7.97
2022-09-30T19:11:33.411Z,6.15
2022-09-30T19:14:02.285Z,6.57
2022-09-30T19:16:38.536Z,5.47
2022-09-30T19:19:05.752Z,5.38
2022-09-30T19:21:36.819Z,7.88
2022-09-30T19:24:06.921Z,8.80
2022-09-30T19:26:34.663Z,5.25
2022-09-30T19:29:00.884Z,5.40
2022-09-30T19:31:27.675Z,5.07
2022-09-30T19:33:56.883Z,5.63
2022-09-30T19:36:23.959Z,5.97
2022-09-30T19:38:51.104Z,5.15
2022-09-30T19:41:19.036Z,4.05
2022-09-30T19:43:48.891Z,9.27
2022-09-30T19:46:15.181Z,5.93
2022-09-30T19:48:41.934Z,10.15
2022-09-30T19:51:10.352Z,5.32
2022-09-30T19:53:41.586Z,7.60
2022-09-30T19:56:12.382Z,11.57
2022-09-30T19:58:40.147Z,5.60
2022-09-30T20:01:06.954Z,6.10
2022-09-30T20:03:33.425Z,5.53
2022-09-30T20:06:14.455Z,6.93
2022-09-30T20:08:44.885Z,7.72
2022-09-30T20:11:15.108Z,5.38
2022-09-30T20:13:41.704Z,5.13
2022-09-30T20:16:10.207Z,5.30
2022-09-30T20:18:37.213Z,5.35
2022-09-30T20:21:10.324Z,4.53
2022-09-30T20:23:38.903Z,5.60
2022-09-30T20:26:09.042Z,4.78
2022-09-30T20:28:35.531Z,3.67
2022-09-30T20:31:09.132Z,4.53
2022-09-30T20:33:36.999Z,5.28
2022-09-30T20:36:04.128Z,4.97
2022-09-30T20:38:30.433Z,8.75
2022-09-30T20:40:57.972Z,7.85
2022-09-30T20:43:30.019Z,7.68
2022-09-30T20:46:00.267Z,4.00
2022-09-30T20:48:31.211Z,13.02
2022-09-30T20:51:00.120Z,4.75
2022-09-30T20:53:26.359Z,4.90
2022-09-30T20:55:52.637Z,4.97
2022-09-30T20:58:18.888Z,9.23
2022-09-30T21:00:45.457Z,8.90
2022-09-30T21:03:13.393Z,3.85
2022-09-30T21:05:39.914Z,4.22
2022-09-30T21:08:07.228Z,5.03
2022-09-30T21:10:34.610Z,5.60
2022-09-30T21:13:01.703Z,6.57
2022-09-30T21:15:28.615Z,8.15
2022-09-30T21:17:54.931Z,5.65
2022-09-30T21:20:22.121Z,4.82
2022-09-30T21:22:48.520Z,5.20
2022-09-30T21:25:14.883Z,5.43
2022-09-30T21:27:45.214Z,5.15
2022-09-30T21:30:11.823Z,5.30
2022-09-30T21:32:40.633Z,4.30
2022-09-30T21:35:07.029Z,8.77
2022-09-30T21:37:33.243Z,5.13
2022-09-30T21:39:59.540Z,6.88
2022-09-30T21:42:26.192Z,6.32
2022-09-30T21:44:52.420Z,5.57
2022-09-30T21:47:18.627Z,6.35
2022-09-30T21:49:44.893Z,5.13
2022-09-30T21:52:11.139Z,10.68
2022-09-30T21:54:39.112Z,9.60
2022-09-30T21:57:08.523Z,7.80
2022-09-30T21:59:38.637Z,10.98
2022-09-30T22:02:06.418Z,8.25
2022-09-30T22:04:32.752Z,8.57
2022-09-30T22:06:59.031Z,6.90
2022-09-30T22:09:25.246Z,6.18
2022-09-30T22:11:51.468Z,5.32
2022-09-30T22:14:17.695Z,8.93
2022-09-30T22:16:44.409Z,7.35
2022-09-30T22:19:10.763Z,5.85
2022-09-30T22:21:37.479Z,8.98
2022-09-30T22:24:05.035Z,8.80
2022-09-30T22:26:31.804Z,6.53
2022-09-30T22:29:02.156Z,6.93
2022-09-30T22:31:29.566Z,6.50
2022-09-30T22:34:15.889Z,8.57
2022-09-30T22:37:00.642Z,9.50
2022-09-30T22:39:27.133Z,10.32
2022-09-30T22:41:54.167Z,8.30
2022-09-30T22:44:20.679Z,7.40
2022-09-30T22:46:47.239Z,8.27
2022-09-30T22:49:13.483Z,8.32
2022-09-30T22:51:39.744Z,10.95
2022-09-30T22:54:06.211Z,9.48
2022-09-30T22:56:32.483Z,6.88
2022-09-30T22:58:59.448Z,8.55
2022-09-30T23:01:26.875Z,7.60
2022-09-30T23:03:55.924Z,7.10
2022-09-30T23:06:22.869Z,9.68
2022-09-30T23:08:49.608Z,6.63
2022-09-30T23:11:16.762Z,8.40
2022-09-30T23:13:43.480Z,8.65
2022-09-30T23:16:10.109Z,8.27
2022-09-30T23:18:36.450Z,11.98
2022-09-30T23:21:04.705Z,6.65
2022-09-30T23:23:35.249Z,7.25
2022-09-30T23:26:02.274Z,6.72
2022-09-30T23:28:28.891Z,10.25
2022-09-30T23:30:55.870Z,6.40
2022-09-30T23:33:22.085Z,6.50
2022-09-30T23:35:48.831Z,8.65
2022-09-30T23:38:15.474Z,6.40
2022-09-30T23:40:42.663Z,8.50
2022-09-30T23:43:08.883Z,8.93
2022-09-30T23:45:35.144Z,10.82
2022-09-30T23:48:01.508Z,10.18
2022-09-30T23:50:27.779Z,9.68
2022-09-30T23:52:54.039Z,7.70
2022-09-30T23:55:20.259Z,9.73
2022-09-30T23:57:46.839Z,8.05
